createdAt,value
2018-04-09T00:01:26.920Z,63.50
2018-04-09T00:03:54.426Z,63.80
2018-04-09T00:06:21.930Z,63.90
2018-04-09T00:08:49.845Z,64.00
2018-04-09T00:11:17.305Z,64.00
2018-04-09T00:13:45.265Z,63.90
2018-04-09T00:16:12.734Z,64.10
2018-04-09T00:18:40.252Z,64.20
2018-04-09T00:21:07.910Z,64.20
2018-04-09T00:23:35.437Z,64.30
2018-04-09T00:26:02.934Z,64.30
2018-04-09T00:28:30.426Z,64.40
2018-04-09T00:30:58.418Z,64.50
2018-04-09T00:33:25.900Z,64.50
2018-04-09T00:35:53.545Z,64.40
2018-04-09T00:38:21.029Z,64.50
2018-04-09T00:40:48.506Z,64.50
2018-04-09T00:43:16.104Z,64.50
2018-04-09T00:45:43.709Z,64.70
2018-04-09T00:48:11.226Z,64.80
2018-04-09T00:50:38.835Z,64.80
2018-04-09T00:53:07.278Z,65.30
2018-04-09T00:55:34.825Z,65.30
2018-04-09T00:58:02.804Z,65.30
2018-04-09T01:00:30.466Z,65.30
2018-04-09T01:02:58.094Z,65.40
2018-04-09T01:05:25.692Z,65.40
2018-04-09T01:07:53.161Z,65.50
2018-04-09T01:10:20.764Z,65.50
2018-04-09T01:12:48.293Z,65.40
2018-04-09T01:15:15.808Z,65.70
2018-04-09T01:17:43.266Z,65.90
2018-04-09T01:20:10.739Z,65.80
2018-04-09T01:22:38.316Z,65.80
2018-04-09T01:25:05.807Z,65.70
2018-04-09T01:27:33.335Z,65.70
2018-04-09T01:30:00.880Z,65.80
2018-04-09T01:32:28.392Z,66.00
2018-04-09T01:34:55.952Z,66.00
2018-04-09T01:37:23.483Z,66.00
2018-04-09T01:39:50.982Z,66.20
2018-04-09T01:42:18.498Z,66.20
2018-04-09T01:44:46.066Z,66.30
2018-04-09T01:47:13.753Z,66.30
2018-04-09T01:49:41.228Z,66.30
2018-04-09T01:52:08.697Z,66.50
2018-04-09T01:54:36.158Z,66.50
2018-04-09T01:57:04.868Z,66.50
2018-04-09T01:59:32.421Z,66.40
2018-04-09T02:01:59.991Z,66.40
2018-04-09T02:04:27.471Z,66.60
2018-04-09T02:06:55.399Z,67.00
2018-04-09T02:09:23.032Z,67.00
2018-04-09T02:11:51.553Z,67.00
2018-04-09T02:14:19.085Z,66.70
2018-04-09T02:16:46.642Z,66.80
2018-04-09T02:19:14.148Z,66.80
2018-04-09T02:21:41.626Z,66.80
2018-04-09T02:24:09.102Z,66.90
2018-04-09T02:26:37.035Z,66.90
2018-04-09T02:29:04.509Z,66.90
2018-04-09T02:31:32.200Z,66.80
2018-04-09T02:33:59.751Z,66.90
2018-04-09T02:36:27.327Z,66.90
2018-04-09T02:38:55.206Z,67.10
2018-04-09T02:41:23.126Z,67.10
2018-04-09T02:43:50.632Z,67.10
2018-04-09T02:46:18.183Z,67.20
2018-04-09T02:48:45.798Z,67.10
2018-04-09T02:51:13.314Z,67.10
2018-04-09T02:53:40.812Z,67.20
2018-04-09T02:56:08.684Z,67.10
2018-04-09T02:58:36.551Z,67.10
2018-04-09T03:01:04.410Z,67.10
2018-04-09T03:03:32.332Z,67.10
2018-04-09T03:05:59.829Z,67.10
2018-04-09T03:08:27.395Z,67.30
2018-04-09T03:10:54.938Z,67.40
2018-04-09T03:13:22.810Z,67.00
2018-04-09T03:15:50.329Z,67.30
2018-04-09T03:18:17.830Z,67.10
2018-04-09T03:20:45.328Z,67.20
2018-04-09T03:23:12.802Z,66.90
2018-04-09T03:25:40.705Z,67.30
2018-04-09T03:28:08.226Z,67.30
2018-04-09T03:30:36.142Z,67.40
2018-04-09T03:33:03.641Z,67.40
2018-04-09T03:35:31.278Z,67.50
2018-04-09T03:37:58.776Z,67.70
2018-04-09T03:40:26.332Z,67.90
2018-04-09T03:42:53.918Z,68.00
2018-04-09T03:45:21.551Z,68.00
2018-04-09T03:47:49.029Z,68.00
2018-04-09T03:50:16.654Z,68.00
2018-04-09T03:52:44.214Z,68.40
2018-04-09T03:55:11.758Z,68.30
2018-04-09T03:57:39.855Z,68.20
2018-04-09T04:00:07.468Z,68.20
2018-04-09T04:02:35.343Z,68.00
2018-04-09T04:05:03.317Z,68.00
2018-04-09T04:07:30.861Z,68.00
2018-04-09T04:09:58.321Z,68.00
2018-04-09T04:12:25.799Z,67.90
2018-04-09T04:14:53.418Z,68.10
2018-04-09T04:17:33.051Z,68.00
2018-04-09T04:20:12.439Z,68.20
2018-04-09T04:22:39.965Z,68.20
2018-04-09T04:25:07.455Z,68.30
2018-04-09T04:27:34.964Z,68.20
2018-04-09T04:30:02.860Z,68.40
2018-04-09T04:32:30.317Z,68.40
2018-04-09T04:34:57.956Z,68.30
2018-04-09T04:37:25.810Z,68.40
2018-04-09T04:39:53.811Z,68.40
2018-04-09T04:42:21.388Z,68.40
2018-04-09T04:44:48.926Z,68.50
2018-04-09T04:47:16.877Z,68.70
2018-04-09T04:49:44.352Z,68.70
2018-04-09T04:52:11.899Z,68.70
2018-04-09T04:54:39.383Z,68.70
2018-04-09T04:57:06.928Z,68.50
2018-04-09T04:59:34.395Z,68.50
2018-04-09T05:02:02.416Z,68.80
2018-04-09T05:04:29.909Z,68.80
2018-04-09T05:06:57.453Z,69.00
2018-04-09T05:09:24.905Z,69.10
2018-04-09T05:11:52.408Z,68.90
2018-04-09T05:14:19.979Z,69.30
2018-04-09T05:16:47.520Z,69.20
2018-04-09T05:19:15.004Z,69.10
2018-04-09T05:21:42.581Z,69.00
2018-04-09T05:24:10.135Z,69.00
2018-04-09T05:26:38.070Z,69.10
2018-04-09T05:29:05.733Z,69.10
2018-04-09T05:31:33.221Z,69.40
2018-04-09T05:34:00.729Z,69.00
2018-04-09T05:36:28.267Z,69.10
2018-04-09T05:38:55.766Z,69.20
2018-04-09T05:41:23.407Z,69.40
2018-04-09T05:43:50.926Z,69.60
2018-04-09T05:46:18.433Z,69.30
2018-04-09T05:48:45.953Z,69.40
2018-04-09T05:51:13.433Z,69.30
2018-04-09T05:53:40.917Z,69.20
2018-04-09T05:56:08.447Z,69.40
2018-04-09T05:58:35.925Z,69.30
2018-04-09T06:01:03.418Z,69.30
2018-04-09T06:03:31.281Z,69.50
2018-04-09T06:05:59.245Z,69.40
2018-04-09T06:08:26.745Z,69.30
2018-04-09T06:10:54.284Z,69.20
2018-04-09T06:13:22.192Z,69.20
2018-04-09T06:15:49.650Z,69.20
2018-04-09T06:18:17.173Z,69.20
2018-04-09T06:20:44.735Z,69.20
2018-04-09T06:23:12.343Z,68.50
2018-04-09T06:25:39.843Z,68.30
2018-04-09T06:28:08.221Z,68.20
2018-04-09T06:30:35.693Z,68.00
2018-04-09T06:33:03.320Z,68.00
2018-04-09T06:35:30.816Z,67.40
2018-04-09T06:37:58.351Z,67.00
2018-04-09T06:40:25.869Z,66.80
2018-04-09T06:42:53.763Z,66.80
2018-04-09T06:45:21.273Z,66.80
2018-04-09T06:47:48.816Z,66.60
2018-04-09T06:50:16.357Z,66.50
2018-04-09T06:52:44.339Z,66.00
2018-04-09T06:55:11.821Z,66.00
2018-04-09T06:57:39.354Z,66.70
2018-04-09T07:00:06.879Z,65.90
2018-04-09T07:02:34.402Z,65.40
2018-04-09T07:05:01.870Z,65.30
2018-04-09T07:07:29.490Z,64.10
2018-04-09T07:09:56.941Z,63.90
2018-04-09T07:12:24.754Z,63.80
2018-04-09T07:14:52.263Z,63.10
2018-04-09T07:17:19.775Z,62.80
2018-04-09T07:19:47.433Z,63.10
2018-04-09T07:22:14.974Z,61.50
2018-04-09T07:24:42.472Z,60.80
2018-04-09T07:27:10.094Z,60.60
2018-04-09T07:29:37.704Z,60.30
2018-04-09T07:32:05.166Z,60.30
2018-04-09T07:34:32.834Z,60.10
2018-04-09T07:37:00.323Z,59.80
2018-04-09T07:39:27.794Z,60.60
2018-04-09T07:41:55.321Z,60.20
2018-04-09T07:44:22.875Z,60.30
2018-04-09T07:46:50.752Z,58.90
2018-04-09T07:49:18.241Z,59.00
2018-04-09T07:51:45.790Z,58.20
2018-04-09T07:54:13.726Z,57.40
2018-04-09T07:56:41.592Z,57.10
2018-04-09T07:59:09.122Z,57.10
2018-04-09T08:01:36.733Z,56.80
2018-04-09T08:04:04.656Z,56.70
2018-04-09T08:06:32.213Z,56.70
2018-04-09T08:08:59.718Z,57.20
2018-04-09T08:11:27.174Z,56.40
2018-04-09T08:13:54.707Z,55.70
2018-04-09T08:16:22.347Z,55.60
2018-04-09T08:18:49.876Z,55.50
2018-04-09T08:21:17.454Z,55.50
2018-04-09T08:23:45.315Z,54.60
2018-04-09T08:26:13.195Z,54.00
2018-04-09T08:28:41.907Z,53.50
2018-04-09T08:31:09.530Z,53.50
2018-04-09T08:33:37.139Z,53.70
2018-04-09T08:36:04.674Z,53.10
2018-04-09T08:38:32.732Z,52.40
2018-04-09T08:41:00.249Z,52.40
2018-04-09T08:43:27.864Z,52.30
2018-04-09T08:45:55.366Z,52.30
2018-04-09T08:48:22.921Z,51.90
2018-04-09T08:50:50.817Z,50.40
2018-04-09T08:53:18.359Z,50.50
2018-04-09T08:55:47.681Z,50.50
2018-04-09T08:58:15.368Z,50.50
2018-04-09T09:00:42.847Z,50.30
2018-04-09T09:03:10.301Z,49.90
2018-04-09T09:05:37.779Z,50.00
2018-04-09T09:08:05.288Z,49.90
2018-04-09T09:10:32.818Z,49.20
2018-04-09T09:13:00.961Z,48.80
2018-04-09T09:15:28.475Z,48.80
2018-04-09T09:17:56.394Z,48.70
2018-04-09T09:20:24.023Z,48.60
2018-04-09T09:22:51.493Z,48.70
2018-04-09T09:25:18.998Z,48.10
2018-04-09T09:27:46.498Z,48.20
2018-04-09T09:30:14.008Z,47.90
2018-04-09T09:32:41.507Z,47.50
2018-04-09T09:35:09.385Z,47.50
2018-04-09T09:37:36.985Z,47.20
2018-04-09T09:40:04.771Z,47.30
2018-04-09T09:42:32.322Z,47.00
2018-04-09T09:44:59.950Z,48.20
2018-04-09T09:47:27.851Z,47.70
2018-04-09T09:49:55.318Z,47.70
2018-04-09T09:52:22.973Z,46.30
2018-04-09T09:54:50.542Z,45.90
2018-04-09T09:57:18.238Z,46.10
2018-04-09T09:59:45.941Z,45.90
2018-04-09T10:02:13.961Z,45.90
2018-04-09T10:04:41.592Z,44.60
2018-04-09T10:07:09.656Z,44.40
2018-04-09T10:09:37.254Z,44.40
2018-04-09T10:12:05.182Z,45.00
2018-04-09T10:14:33.638Z,45.00
2018-04-09T10:17:01.162Z,43.80
2018-04-09T10:19:29.471Z,43.70
2018-04-09T10:21:58.801Z,43.70
2018-04-09T10:24:26.305Z,45.20
2018-04-09T10:26:53.884Z,45.50
2018-04-09T10:29:21.960Z,45.20
2018-04-09T10:31:49.817Z,45.00
2018-04-09T10:34:17.841Z,43.40
2018-04-09T10:36:45.351Z,43.40
2018-04-09T10:39:13.052Z,43.10
2018-04-09T10:41:40.889Z,44.10
2018-04-09T10:44:08.703Z,44.10
2018-04-09T10:46:36.420Z,43.50
2018-04-09T10:49:04.386Z,41.80
2018-04-09T10:51:31.974Z,41.90
2018-04-09T10:53:59.891Z,41.60
2018-04-09T10:56:27.373Z,41.60
2018-04-09T10:58:54.978Z,42.60
2018-04-09T11:01:22.981Z,43.40
2018-04-09T11:03:50.558Z,43.40
2018-04-09T11:06:18.059Z,42.50
2018-04-09T11:08:45.629Z,42.30
2018-04-09T11:11:13.168Z,42.10
2018-04-09T11:13:40.719Z,41.60
2018-04-09T11:16:08.230Z,41.70
2018-04-09T11:18:36.217Z,43.20
2018-04-09T11:21:03.739Z,43.20
2018-04-09T11:23:31.273Z,42.80
2018-04-09T11:25:58.740Z,42.40
2018-04-09T11:28:26.277Z,41.90
2018-04-09T11:30:54.167Z,41.50
2018-04-09T11:33:21.636Z,41.50
2018-04-09T11:35:49.139Z,41.20
2018-04-09T11:38:16.666Z,41.20
2018-04-09T11:40:44.170Z,40.90
2018-04-09T11:43:11.738Z,40.50
2018-04-09T11:45:39.725Z,40.80
2018-04-09T11:48:07.231Z,40.80
2018-04-09T11:50:34.752Z,42.10
2018-04-09T11:53:02.263Z,42.00
2018-04-09T11:55:30.111Z,39.80
2018-04-09T12:00:24.336Z,38.90
2018-04-09T12:02:51.796Z,38.40
2018-04-09T12:05:19.914Z,38.40
2018-04-09T12:07:47.440Z,38.40
2018-04-09T12:10:15.165Z,38.30
2018-04-09T12:12:43.011Z,38.60
2018-04-09T12:15:10.677Z,38.60
2018-04-09T12:17:38.165Z,39.30
2018-04-09T12:20:06.114Z,37.80
2018-04-09T12:22:33.628Z,37.80
2018-04-09T12:25:01.154Z,37.60
2018-04-09T12:27:28.650Z,37.60
2018-04-09T12:29:56.203Z,38.80
2018-04-09T12:32:23.850Z,38.20
2018-04-09T12:34:51.430Z,37.60
2018-04-09T12:37:19.330Z,37.60
2018-04-09T12:39:46.968Z,37.60
2018-04-09T12:42:15.005Z,37.90
2018-04-09T12:44:42.601Z,37.90
2018-04-09T12:47:10.610Z,37.50
2018-04-09T12:49:38.061Z,37.50
2018-04-09T12:52:05.647Z,38.00
2018-04-09T12:54:33.169Z,38.20
2018-04-09T12:57:01.091Z,37.20
2018-04-09T12:59:28.699Z,37.20
2018-04-09T13:01:56.634Z,37.30
2018-04-09T13:04:24.148Z,37.30
2018-04-09T13:06:51.887Z,37.50
2018-04-09T13:09:19.374Z,37.40
2018-04-09T13:11:47.682Z,37.70
2018-04-09T13:14:15.146Z,37.70
2018-04-09T13:16:42.708Z,37.10
2018-04-09T13:19:10.156Z,37.40
2018-04-09T13:21:37.713Z,37.30
2018-04-09T13:24:05.762Z,36.80
2018-04-09T13:26:33.235Z,36.80
2018-04-09T13:29:01.239Z,37.70
2018-04-09T13:31:28.710Z,37.70
2018-04-09T13:33:56.835Z,37.60
2018-04-09T13:36:24.295Z,37.70
2018-04-09T13:38:51.812Z,37.90
2018-04-09T13:41:19.318Z,37.70
2018-04-09T13:43:46.927Z,38.00
2018-04-09T13:46:14.404Z,38.20
2018-04-09T13:48:41.986Z,38.30
2018-04-09T13:51:09.733Z,38.60
2018-04-09T13:53:38.971Z,38.80
2018-04-09T13:56:06.597Z,38.80
2018-04-09T13:58:34.073Z,38.70
2018-04-09T14:01:02.160Z,38.80
2018-04-09T14:03:29.797Z,38.40
2018-04-09T14:05:57.443Z,38.50
2018-04-09T14:08:25.367Z,38.00
2018-04-09T14:10:53.158Z,38.00
2018-04-09T14:13:20.905Z,37.80
2018-04-09T14:15:48.362Z,37.70
2018-04-09T14:18:15.843Z,37.90
2018-04-09T14:20:43.301Z,38.00
2018-04-09T14:23:10.753Z,38.20
2018-04-09T14:25:38.232Z,38.40
2018-04-09T14:28:05.683Z,38.40
2018-04-09T14:30:33.248Z,38.30
2018-04-09T14:33:00.704Z,38.40
2018-04-09T14:35:28.196Z,38.60
2018-04-09T14:37:56.056Z,39.00
2018-04-09T14:40:23.627Z,39.00
2018-04-09T14:42:51.194Z,39.10
2018-04-09T14:45:18.669Z,39.40
2018-04-09T14:47:47.166Z,39.70
2018-04-09T14:50:15.039Z,39.90
2018-04-09T14:52:42.890Z,40.10
2018-04-09T14:55:10.378Z,40.10
2018-04-09T14:57:38.225Z,40.00
2018-04-09T15:00:05.785Z,40.00
2018-04-09T15:02:33.335Z,40.10
2018-04-09T15:05:00.811Z,40.20
2018-04-09T15:07:28.368Z,40.00
2018-04-09T15:09:55.836Z,40.20
2018-04-09T15:12:23.312Z,40.40
2018-04-09T15:14:50.855Z,40.30
2018-04-09T15:17:18.322Z,40.60
2018-04-09T15:19:46.103Z,40.90
2018-04-09T15:22:13.572Z,41.20
2018-04-09T15:24:41.553Z,41.60
2018-04-09T15:27:09.516Z,41.50
2018-04-09T15:29:37.077Z,41.50
2018-04-09T15:32:04.555Z,41.90
2018-04-09T15:34:32.417Z,41.50
2018-04-09T15:37:00.309Z,41.70
2018-04-09T15:39:27.832Z,41.70
2018-04-09T15:41:55.391Z,41.70
2018-04-09T15:44:22.863Z,42.20
2018-04-09T15:46:50.349Z,42.80
2018-04-09T15:49:18.206Z,42.70
2018-04-09T15:51:45.697Z,42.70
2018-04-09T15:54:13.152Z,42.80
2018-04-09T15:56:41.093Z,43.50
2018-04-09T15:59:08.655Z,43.50
2018-04-09T16:01:37.391Z,43.40
2018-04-09T16:04:04.908Z,43.20
2018-04-09T16:06:32.880Z,44.20
2018-04-09T16:09:00.442Z,44.50
2018-04-09T16:11:27.927Z,44.70
2018-04-09T16:13:55.799Z,45.70
2018-04-09T16:16:23.681Z,45.70
2018-04-09T16:18:51.564Z,46.10
2018-04-09T16:21:19.433Z,46.00
2018-04-09T16:23:46.984Z,46.00
2018-04-09T16:26:14.944Z,46.00
2018-04-09T16:28:42.505Z,46.00
2018-04-09T16:31:09.985Z,46.20
2018-04-09T16:33:37.850Z,47.10
2018-04-09T16:36:05.400Z,47.00
2018-04-09T16:38:33.562Z,47.30
2018-04-09T16:41:01.041Z,47.50
2018-04-09T16:43:28.507Z,47.20
2018-04-09T16:45:55.956Z,47.20
2018-04-09T16:48:23.800Z,47.10
2018-04-09T16:50:51.318Z,47.20
2018-04-09T16:53:19.276Z,47.40
2018-04-09T16:55:46.824Z,47.40
2018-04-09T16:58:14.300Z,47.50
2018-04-09T17:00:41.853Z,47.80
2018-04-09T17:03:09.451Z,47.90
2018-04-09T17:05:37.292Z,48.00
2018-04-09T17:08:04.775Z,48.00
2018-04-09T17:10:32.639Z,47.60
2018-04-09T17:13:00.111Z,47.70
2018-04-09T17:15:28.057Z,48.20
2018-04-09T17:17:55.527Z,48.20
2018-04-09T17:20:23.089Z,47.60
2018-04-09T17:22:50.649Z,47.30
2018-04-09T17:25:18.535Z,47.40
2018-04-09T17:27:46.124Z,47.20
2018-04-09T17:30:14.071Z,47.20
2018-04-09T17:32:41.620Z,47.20
2018-04-09T17:35:09.770Z,47.50
2018-04-09T17:37:37.978Z,47.70
2018-04-09T17:40:05.454Z,47.80
2018-04-09T17:42:33.016Z,48.20
2018-04-09T17:45:00.484Z,48.90
2018-04-09T17:47:28.036Z,48.80
2018-04-09T17:49:55.620Z,49.00
2018-04-09T17:52:23.176Z,49.40
2018-04-09T17:54:50.660Z,49.40
2018-04-09T17:57:19.595Z,49.40
2018-04-09T17:59:47.192Z,49.40
2018-04-09T18:02:14.648Z,49.40
2018-04-09T18:04:42.164Z,49.50
2018-04-09T18:07:09.639Z,49.70
2018-04-09T18:09:37.124Z,49.70
2018-04-09T18:12:04.817Z,49.70
2018-04-09T18:14:32.315Z,49.40
2018-04-09T18:16:59.856Z,49.70
2018-04-09T18:19:27.339Z,49.80
2018-04-09T18:21:55.220Z,49.60
2018-04-09T18:24:22.735Z,49.80
2018-04-09T18:26:50.224Z,50.00
2018-04-09T18:29:18.125Z,49.50
2018-04-09T18:31:45.578Z,49.60
2018-04-09T18:34:13.047Z,49.70
2018-04-09T18:36:40.515Z,49.80
2018-04-09T18:39:07.975Z,50.10
2018-04-09T18:41:35.442Z,50.20
2018-04-09T18:44:02.904Z,50.40
2018-04-09T18:46:30.428Z,50.60
2018-04-09T18:48:58.318Z,51.00
2018-04-09T18:51:25.815Z,51.00
2018-04-09T18:53:53.311Z,51.20
2018-04-09T18:56:20.865Z,51.40
2018-04-09T18:58:48.433Z,51.80
2018-04-09T19:01:15.952Z,51.90
2018-04-09T19:03:43.454Z,52.10
2018-04-09T19:06:10.925Z,52.30
2018-04-09T19:08:38.480Z,52.80
2018-04-09T19:11:06.099Z,52.80
2018-04-09T19:13:33.564Z,53.00
2018-04-09T19:16:01.052Z,53.50
2018-04-09T19:18:28.543Z,53.60
2018-04-09T19:20:56.063Z,53.60
2018-04-09T19:23:23.558Z,54.10
2018-04-09T19:25:51.037Z,54.20
2018-04-09T19:28:18.521Z,54.50
2018-04-09T19:30:46.463Z,54.80
2018-04-09T19:33:13.920Z,54.80
2018-04-09T19:49:06.962Z,56.30
2018-04-09T19:51:34.519Z,56.60
2018-04-09T19:54:02.020Z,56.80
2018-04-09T19:56:29.957Z,57.20
2018-04-09T19:58:57.431Z,57.20
2018-04-09T20:01:25.320Z,57.50
2018-04-09T20:03:52.874Z,57.50
2018-04-09T20:06:20.749Z,57.40
2018-04-09T20:08:48.802Z,57.50
2018-04-09T20:11:16.285Z,57.50
2018-04-09T20:13:44.159Z,57.70
2018-04-09T20:16:12.055Z,57.80
2018-04-09T20:18:39.962Z,57.80
2018-04-09T20:21:07.540Z,57.80
2018-04-09T20:23:35.014Z,58.10
2018-04-09T20:26:02.583Z,58.20
2018-04-09T20:28:30.064Z,58.40
2018-04-09T20:30:58.035Z,58.60
2018-04-09T20:33:25.937Z,59.00
2018-04-09T20:35:53.424Z,59.00
2018-04-09T20:38:20.920Z,59.40
2018-04-09T20:40:48.806Z,59.20
2018-04-09T20:43:16.745Z,59.40
2018-04-09T20:45:44.223Z,59.40
2018-04-09T20:48:11.936Z,59.50
2018-04-09T20:50:39.458Z,59.60
2018-04-09T20:53:07.343Z,59.90
2018-04-09T20:55:35.217Z,60.00
2018-04-09T20:58:02.747Z,60.00
2018-04-09T21:00:30.240Z,60.10
2018-04-09T21:02:58.197Z,60.60
2018-04-09T21:05:25.750Z,60.60
2018-04-09T21:07:53.245Z,60.50
2018-04-09T21:10:21.115Z,60.70
2018-04-09T21:12:49.012Z,60.70
2018-04-09T21:15:16.822Z,60.70
2018-04-09T21:17:44.323Z,61.00
2018-04-09T21:20:11.780Z,61.00
2018-04-09T21:22:39.346Z,61.30
2018-04-09T21:25:07.245Z,61.60
2018-04-09T21:27:34.757Z,61.60
2018-04-09T21:30:02.286Z,61.60
2018-04-09T21:32:29.779Z,61.20
2018-04-09T21:34:57.357Z,61.00
2018-04-09T21:37:24.833Z,61.00
2018-04-09T21:39:53.142Z,60.90
2018-04-09T21:42:20.602Z,60.90
2018-04-09T21:44:48.098Z,61.30
2018-04-09T21:47:15.589Z,61.50
2018-04-09T21:49:43.222Z,61.90
2018-04-09T21:52:10.680Z,62.00
2018-04-09T21:54:38.257Z,62.20
2018-04-09T21:57:05.835Z,62.20
2018-04-09T21:59:33.343Z,62.60
2018-04-09T22:02:00.820Z,62.70
2018-04-09T22:04:28.320Z,62.80
2018-04-09T22:06:55.807Z,62.90
2018-04-09T22:09:23.707Z,63.30
2018-04-09T22:11:51.228Z,63.30
2018-04-09T22:14:19.124Z,63.60
2018-04-09T22:16:46.608Z,63.60
2018-04-09T22:19:14.115Z,63.50
2018-04-09T22:21:41.678Z,63.60
2018-04-09T22:24:09.306Z,63.70
2018-04-09T22:26:36.820Z,63.80
2018-04-09T22:29:04.306Z,63.70
2018-04-09T22:31:31.803Z,63.50
2018-04-09T22:33:59.303Z,63.40
2018-04-09T22:36:26.850Z,63.50
2018-04-09T22:38:54.682Z,63.50
2018-04-09T22:41:22.166Z,63.40
2018-04-09T22:43:49.649Z,63.60
2018-04-09T22:46:17.137Z,63.70
2018-04-09T22:48:45.019Z,64.00
2018-04-09T22:51:13.008Z,64.30
2018-04-09T22:53:40.479Z,64.30
2018-04-09T22:56:08.000Z,64.20
2018-04-09T22:58:35.475Z,64.30
2018-04-09T23:01:03.452Z,64.40
2018-04-09T23:03:30.918Z,64.40
2018-04-09T23:05:58.468Z,64.40
2018-04-09T23:08:26.028Z,64.70
2018-04-09T23:10:53.913Z,64.60
2018-04-09T23:13:21.867Z,64.60
2018-04-09T23:15:49.369Z,64.60
2018-04-09T23:18:16.844Z,64.90
2018-04-09T23:20:44.332Z,64.90
2018-04-09T23:23:11.791Z,65.00
2018-04-09T23:25:39.304Z,64.90
2018-04-09T23:28:07.157Z,65.00
2018-04-09T23:30:34.615Z,65.00
2018-04-09T23:33:02.606Z,64.90
2018-04-09T23:35:30.562Z,64.80
2018-04-09T23:37:58.045Z,64.70
2018-04-09T23:40:25.604Z,64.80
2018-04-09T23:42:53.480Z,64.80
2018-04-09T23:45:21.352Z,64.80
2018-04-09T23:47:49.231Z,64.80
2018-04-09T23:50:17.093Z,64.80
2018-04-09T23:52:45.050Z,64.90
2018-04-09T23:55:12.617Z,64.80
2018-04-09T23:57:40.514Z,64.80
